Aérodrome :
LOGIN :

S'inscrire | Disclaimer

   EN    FR    IT 

 










Légende :    VFR   VFR Marginal   IFR   IFR Intensif   IFR Très Intensif
Visi : 
Plafond : 
>= 8 km
>= 3000ft
5 à 8 km
1000 à 3000 ft
1500m à 5 km
500 à 1000 ft
800 à 1500m
200 à 500 ft
< 800m
< 200 ft
Symboles :   Orages  Brouillard  Fortes neiges  Fortes précipitations  Vent > 20 kt
SIGMETs :   Divers  Orages  Givrage  Turbulence  Onde Orograph.  Cendres Volcan.






- Altitude de l'aérodrome : 2026 ft
- Code IATA : TOJ


LETO - Madrid Torrejon

DERNIER METAR :
  • 081230Z 26002KT 9999 SCT030 11/04 Q1014 NOSIG

METARs EXPIRÉS :
  • 081200Z VRB02KT 9999 SCT030 11/05 Q1014 NOSIG
  • 081130Z 23002KT 9999 FEW025 SCT040 11/06 Q1015 NOSIG
  • 081100Z VRB02KT 9999 FEW025 SCT040 10/05 Q1015 NOSIG
  • 081030Z 00000KT 9999 FEW030 SCT045 10/05 Q1015 NOSIG
  • 081000Z 00000KT 9999 BKN040 09/05 Q1015 NOSIG

TAF TAF LETO
Valide du 08 à 12h jusqu'au 09 à 12h UTC


081100Z 0812/0912 VRB04KT 9999 BKN035 TX13/0815Z TN02/0906Z
PROB40
TEMPO 0812/0820 02010KT 3000 SHRA SCT025TCU
PROB30
TEMPO 0813/0819 VRB15G25KT 3000 TSRA SHRA SCT025CB
BECMG 0818/0819 02013KT



MET'MAP, la Météo Aéronautique d'un coup d'oeil ! - Copyright ORBIFLY Décembre 2007 - Disclaimer

ORBIFLY MET'MAP TEAM :

Programmation & Développement : Alexandra Zaïnal
Sur une idée originale de : Baudouin d'Aumeries
Assistance à la programmation : Marc-Olivier Méhu
Soutien technique & logistique : Manuel Goepfert

Contact : metmap@orbifly.com




SOURCES & CREDITS :

   NOAA